sensor_id;sensor_type;location;lat;lon;timestamp;pressure;altitude;pressure_sealevel;temperature;humidity
75627;BME280;67372;49.404;11.034;2023-12-29T00:01:30;98161.72;;;8.19;80.59
75627;BME280;67372;49.404;11.034;2023-12-29T00:03:57;98154.56;;;8.19;81.28
75627;BME280;67372;49.404;11.034;2023-12-29T00:06:23;98155.81;;;8.23;80.96
75627;BME280;67372;49.404;11.034;2023-12-29T00:08:50;98154.16;;;8.22;80.61
75627;BME280;67372;49.404;11.034;2023-12-29T00:11:20;98151.31;;;8.24;80.70
75627;BME280;67372;49.404;11.034;2023-12-29T00:13:46;98163.38;;;8.26;80.44
75627;BME280;67372;49.404;11.034;2023-12-29T00:16:14;98166.66;;;8.28;80.42
75627;BME280;67372;49.404;11.034;2023-12-29T00:18:40;98166.06;;;8.33;80.84
75627;BME280;67372;49.404;11.034;2023-12-29T00:21:07;98162.19;;;8.36;80.16
75627;BME280;67372;49.404;11.034;2023-12-29T00:23:33;98173.44;;;8.38;80.16
75627;BME280;67372;49.404;11.034;2023-12-29T00:26:00;98160.97;;;8.38;80.15
75627;BME280;67372;49.404;11.034;2023-12-29T00:28:26;98170.38;;;8.34;80.79
75627;BME280;67372;49.404;11.034;2023-12-29T00:30:52;98169.72;;;8.32;80.57
75627;BME280;67372;49.404;11.034;2023-12-29T00:33:28;98163.81;;;8.30;80.64
75627;BME280;67372;49.404;11.034;2023-12-29T00:35:55;98166.47;;;8.30;80.48
75627;BME280;67372;49.404;11.034;2023-12-29T00:38:21;98163.38;;;8.26;81.36
75627;BME280;67372;49.404;11.034;2023-12-29T00:40:47;98161.16;;;8.30;81.76
75627;BME280;67372;49.404;11.034;2023-12-29T00:43:14;98162.41;;;8.34;81.04
75627;BME280;67372;49.404;11.034;2023-12-29T00:45:40;98152.38;;;8.36;80.95
75627;BME280;67372;49.404;11.034;2023-12-29T00:48:07;98156.28;;;8.40;81.11
75627;BME280;67372;49.404;11.034;2023-12-29T00:50:34;98152.19;;;8.44;81.26
75627;BME280;67372;49.404;11.034;2023-12-29T00:53:00;98148.28;;;8.47;80.84
75627;BME280;67372;49.404;11.034;2023-12-29T00:55:27;98153.19;;;8.50;80.84
75627;BME280;67372;49.404;11.034;2023-12-29T00:57:53;98150.31;;;8.51;81.16
75627;BME280;67372;49.404;11.034;2023-12-29T01:00:19;98149.50;;;8.51;81.01
75627;BME280;67372;49.404;11.034;2023-12-29T01:02:46;98143.59;;;8.49;81.50
75627;BME280;67372;49.404;11.034;2023-12-29T01:05:16;98150.53;;;8.50;81.51
75627;BME280;67372;49.404;11.034;2023-12-29T01:07:43;98148.53;;;8.52;81.28
75627;BME280;67372;49.404;11.034;2023-12-29T01:10:09;98149.34;;;8.52;81.51
75627;BME280;67372;49.404;11.034;2023-12-29T01:12:36;98152.59;;;8.54;80.84
75627;BME280;67372;49.404;11.034;2023-12-29T01:15:03;98153.81;;;8.58;80.74
75627;BME280;67372;49.404;11.034;2023-12-29T01:17:29;98154.22;;;8.62;80.69
75627;BME280;67372;49.404;11.034;2023-12-29T01:19:55;98156.28;;;8.67;81.00
75627;BME280;67372;49.404;11.034;2023-12-29T01:22:22;98156.47;;;8.72;80.56
75627;BME280;67372;49.404;11.034;2023-12-29T01:24:48;98150.94;;;8.73;79.76
75627;BME280;67372;49.404;11.034;2023-12-29T01:27:15;98155.03;;;8.69;79.89
75627;BME280;67372;49.404;11.034;2023-12-29T01:29:41;98141.75;;;8.63;80.25
75627;BME280;67372;49.404;11.034;2023-12-29T01:32:08;98145.03;;;8.58;80.74
75627;BME280;67372;49.404;11.034;2023-12-29T01:34:34;98149.34;;;8.52;81.09
75627;BME280;67372;49.404;11.034;2023-12-29T01:37:02;98154.63;;;8.46;81.18
75627;BME280;67372;49.404;11.034;2023-12-29T01:39:29;98140.31;;;8.40;80.67
75627;BME280;67372;49.404;11.034;2023-12-29T01:41:56;98139.09;;;8.36;81.09
75627;BME280;67372;49.404;11.034;2023-12-29T01:44:22;98145.00;;;8.31;80.76
75627;BME280;67372;49.404;11.034;2023-12-29T01:46:50;98148.69;;;8.30;81.00
75627;BME280;67372;49.404;11.034;2023-12-29T01:49:20;98144.78;;;8.33;81.41
75627;BME280;67372;49.404;11.034;2023-12-29T01:51:50;98136.66;;;8.35;81.21
75627;BME280;67372;49.404;11.034;2023-12-29T01:54:19;98135.41;;;8.37;81.04
75627;BME280;67372;49.404;11.034;2023-12-29T01:56:48;98128.88;;;8.40;81.26
75627;BME280;67372;49.404;11.034;2023-12-29T01:59:16;98125.00;;;8.36;81.40
75627;BME280;67372;49.404;11.034;2023-12-29T02:01:53;98131.50;;;8.33;81.11
75627;BME280;67372;49.404;11.034;2023-12-29T02:04:20;98125.38;;;8.32;81.13
75627;BME280;67372;49.404;11.034;2023-12-29T02:06:46;98127.84;;;8.34;81.36
75627;BME280;67372;49.404;11.034;2023-12-29T02:09:13;98110.25;;;8.33;81.71
75627;BME280;67372;49.404;11.034;2023-12-29T02:11:40;98117.84;;;8.36;81.01
75627;BME280;67372;49.404;11.034;2023-12-29T02:14:06;98117.63;;;8.38;81.13
75627;BME280;67372;49.404;11.034;2023-12-29T02:19:25;98109.25;;;8.34;80.70
75627;BME280;67372;49.404;11.034;2023-12-29T02:21:54;98116.16;;;8.28;80.83
75627;BME280;67372;49.404;11.034;2023-12-29T02:24:20;98106.75;;;8.26;80.79
75627;BME280;67372;49.404;11.034;2023-12-29T02:26:50;98100.41;;;8.27;80.27
75627;BME280;67372;49.404;11.034;2023-12-29T02:29:20;98110.22;;;8.26;80.25
75627;BME280;67372;49.404;11.034;2023-12-29T02:31:52;98112.47;;;8.23;80.76
75627;BME280;67372;49.404;11.034;2023-12-29T02:34:21;98105.09;;;8.25;80.45
75627;BME280;67372;49.404;11.034;2023-12-29T02:36:50;98113.91;;;8.25;80.77
75627;BME280;67372;49.404;11.034;2023-12-29T02:39:17;98111.25;;;8.19;80.45
75627;BME280;67372;49.404;11.034;2023-12-29T02:41:44;98113.91;;;8.19;80.74
75627;BME280;67372;49.404;11.034;2023-12-29T02:44:11;98117.78;;;8.16;81.06
75627;BME280;67372;49.404;11.034;2023-12-29T02:46:37;98117.16;;;8.21;80.71
75627;BME280;67372;49.404;11.034;2023-12-29T02:49:04;98110.00;;;8.21;80.91
75627;BME280;67372;49.404;11.034;2023-12-29T02:51:30;98116.16;;;8.22;79.95
75627;BME280;67372;49.404;11.034;2023-12-29T02:53:57;98109.81;;;8.23;80.81
75627;BME280;67372;49.404;11.034;2023-12-29T02:56:23;98092.84;;;8.24;80.73
75627;BME280;67372;49.404;11.034;2023-12-29T02:58:49;98087.13;;;8.14;80.27
75627;BME280;67372;49.404;11.034;2023-12-29T03:01:16;98080.59;;;8.10;80.75
75627;BME280;67372;49.404;11.034;2023-12-29T03:03:42;98086.31;;;8.07;81.12
75627;BME280;67372;49.404;11.034;2023-12-29T03:06:09;98078.56;;;8.05;80.97
75627;BME280;67372;49.404;11.034;2023-12-29T03:08:35;98079.38;;;8.06;80.75
75627;BME280;67372;49.404;11.034;2023-12-29T03:11:02;98073.41;;;8.04;80.54
75627;BME280;67372;49.404;11.034;2023-12-29T03:13:28;98071.16;;;8.00;80.98
75627;BME280;67372;49.404;11.034;2023-12-29T03:15:55;98063.59;;;8.04;80.74
75627;BME280;67372;49.404;11.034;2023-12-29T03:18:21;98059.53;;;8.01;80.42
75627;BME280;67372;49.404;11.034;2023-12-29T03:20:47;98056.03;;;8.01;80.71
75627;BME280;67372;49.404;11.034;2023-12-29T03:23:14;98056.25;;;7.99;80.37
75627;BME280;67372;49.404;11.034;2023-12-29T03:25:40;98051.16;;;7.98;80.84
75627;BME280;67372;49.404;11.034;2023-12-29T03:28:07;98048.28;;;7.99;80.70
75627;BME280;67372;49.404;11.034;2023-12-29T03:30:33;98051.97;;;7.98;80.58
75627;BME280;67372;49.404;11.034;2023-12-29T03:32:59;98045.22;;;7.96;80.54
75627;BME280;67372;49.404;11.034;2023-12-29T03:35:29;98051.97;;;7.92;80.83
75627;BME280;67372;49.404;11.034;2023-12-29T03:37:56;98055.22;;;7.87;81.21
75627;BME280;67372;49.404;11.034;2023-12-29T03:40:22;98052.94;;;7.78;81.50
75627;BME280;67372;49.404;11.034;2023-12-29T03:42:48;98048.88;;;7.75;80.88
75627;BME280;67372;49.404;11.034;2023-12-29T03:45:15;98050.69;;;7.68;81.64
75627;BME280;67372;49.404;11.034;2023-12-29T03:47:41;98053.75;;;7.58;82.12
75627;BME280;67372;49.404;11.034;2023-12-29T03:50:08;98044.13;;;7.51;81.98
75627;BME280;67372;49.404;11.034;2023-12-29T03:52:34;98043.31;;;7.50;81.60
75627;BME280;67372;49.404;11.034;2023-12-29T03:55:01;98035.53;;;7.42;82.47
75627;BME280;67372;49.404;11.034;2023-12-29T03:57:27;98024.31;;;7.40;82.43
75627;BME280;67372;49.404;11.034;2023-12-29T03:59:53;98033.28;;;7.39;81.91
75627;BME280;67372;49.404;11.034;2023-12-29T04:02:20;98033.06;;;7.34;82.61
75627;BME280;67372;49.404;11.034;2023-12-29T04:04:46;98041.41;;;7.31;82.70
75627;BME280;67372;49.404;11.034;2023-12-29T04:07:13;98032.63;;;7.30;82.97
75627;BME280;67372;49.404;11.034;2023-12-29T04:09:39;98038.34;;;7.27;82.78
75627;BME280;67372;49.404;11.034;2023-12-29T04:12:06;98036.31;;;7.29;82.26
75627;BME280;67372;49.404;11.034;2023-12-29T04:14:32;98043.84;;;7.26;83.02
75627;BME280;67372;49.404;11.034;2023-12-29T04:16:59;98038.75;;;7.24;83.06
75627;BME280;67372;49.404;11.034;2023-12-29T04:19:25;98044.03;;;7.24;83.08
75627;BME280;67372;49.404;11.034;2023-12-29T04:21:51;98037.53;;;7.27;82.91
75627;BME280;67372;49.404;11.034;2023-12-29T04:24:18;98038.13;;;7.29;82.63
75627;BME280;67372;49.404;11.034;2023-12-29T04:26:44;98029.38;;;7.28;83.04
75627;BME280;67372;49.404;11.034;2023-12-29T04:29:11;98029.16;;;7.30;82.65
75627;BME280;67372;49.404;11.034;2023-12-29T04:31:37;98018.34;;;7.31;82.94
75627;BME280;67372;49.404;11.034;2023-12-29T04:34:03;98022.25;;;7.35;82.36
75627;BME280;67372;49.404;11.034;2023-12-29T04:36:30;98026.16;;;7.39;82.74
75627;BME280;67372;49.404;11.034;2023-12-29T04:38:57;98023.69;;;7.38;83.15
75627;BME280;67372;49.404;11.034;2023-12-29T04:41:23;98014.91;;;7.37;82.73
75627;BME280;67372;49.404;11.034;2023-12-29T04:43:49;98013.91;;;7.38;82.57
75627;BME280;67372;49.404;11.034;2023-12-29T04:46:16;98021.84;;;7.38;82.78
75627;BME280;67372;49.404;11.034;2023-12-29T04:48:42;98026.97;;;7.40;82.16
75627;BME280;67372;49.404;11.034;2023-12-29T04:51:08;98029.81;;;7.45;82.39
75627;BME280;67372;49.404;11.034;2023-12-29T04:53:35;98040.25;;;7.47;81.50
75627;BME280;67372;49.404;11.034;2023-12-29T04:56:01;98041.47;;;7.51;81.69
75627;BME280;67372;49.404;11.034;2023-12-29T04:58:28;98048.81;;;7.55;81.73
75627;BME280;67372;49.404;11.034;2023-12-29T05:00:54;98050.28;;;7.58;81.74
75627;BME280;67372;49.404;11.034;2023-12-29T05:03:20;98055.97;;;7.55;81.83
75627;BME280;67372;49.404;11.034;2023-12-29T05:05:47;98054.34;;;7.54;81.54
75627;BME280;67372;49.404;11.034;2023-12-29T05:08:13;98054.75;;;7.51;81.45
75627;BME280;67372;49.404;11.034;2023-12-29T05:10:40;98047.41;;;7.53;81.53
75627;BME280;67372;49.404;11.034;2023-12-29T05:13:06;98051.28;;;7.50;81.63
75627;BME280;67372;49.404;11.034;2023-12-29T05:15:33;98040.44;;;7.45;82.00
75627;BME280;67372;49.404;11.034;2023-12-29T05:17:59;98039.00;;;7.43;82.07
75627;BME280;67372;49.404;11.034;2023-12-29T05:20:26;98034.25;;;7.31;82.77
75627;BME280;67372;49.404;11.034;2023-12-29T05:22:53;98032.84;;;7.29;82.06
75627;BME280;67372;49.404;11.034;2023-12-29T05:25:19;98035.88;;;7.26;82.43
75627;BME280;67372;49.404;11.034;2023-12-29T05:27:45;98033.03;;;7.21;82.19
75627;BME280;67372;49.404;11.034;2023-12-29T05:30:12;98029.34;;;7.15;82.38
75627;BME280;67372;49.404;11.034;2023-12-29T05:32:39;98027.66;;;7.07;82.09
75627;BME280;67372;49.404;11.034;2023-12-29T05:35:05;98035.19;;;7.04;82.40
75627;BME280;67372;49.404;11.034;2023-12-29T05:37:32;98032.53;;;6.97;82.69
75627;BME280;67372;49.404;11.034;2023-12-29T05:39:58;98036.16;;;6.90;82.61
75627;BME280;67372;49.404;11.034;2023-12-29T05:42:25;98034.28;;;6.84;82.90
75627;BME280;67372;49.404;11.034;2023-12-29T05:44:51;98041.19;;;6.78;83.19
75627;BME280;67372;49.404;11.034;2023-12-29T05:47:18;98041.59;;;6.75;83.12
75627;BME280;67372;49.404;11.034;2023-12-29T05:49:44;98047.47;;;6.70;83.35
75627;BME280;67372;49.404;11.034;2023-12-29T05:52:12;98052.16;;;6.68;83.55
75627;BME280;67372;49.404;11.034;2023-12-29T05:54:38;98052.34;;;6.67;83.42
75627;BME280;67372;49.404;11.034;2023-12-29T05:57:05;98052.56;;;6.65;83.43
75627;BME280;67372;49.404;11.034;2023-12-29T05:59:31;98043.97;;;6.63;83.67
75627;BME280;67372;49.404;11.034;2023-12-29T06:01:57;98052.25;;;6.54;85.22
75627;BME280;67372;49.404;11.034;2023-12-29T06:04:24;98037.97;;;6.48;84.26
75627;BME280;67372;49.404;11.034;2023-12-29T06:06:50;98039.56;;;6.42;84.05
75627;BME280;67372;49.404;11.034;2023-12-29T06:09:17;98044.78;;;6.36;84.49
75627;BME280;67372;49.404;11.034;2023-12-29T06:11:44;98040.28;;;6.30;84.56
75627;BME280;67372;49.404;11.034;2023-12-29T06:14:10;98032.91;;;6.25;84.23
75627;BME280;67372;49.404;11.034;2023-12-29T06:16:36;98025.56;;;6.21;84.05
75627;BME280;67372;49.404;11.034;2023-12-29T06:19:03;98024.31;;;6.17;83.93
75627;BME280;67372;49.404;11.034;2023-12-29T06:21:29;98026.69;;;6.11;85.12
75627;BME280;67372;49.404;11.034;2023-12-29T06:23:56;98012.22;;;6.07;85.27
75627;BME280;67372;49.404;11.034;2023-12-29T06:26:22;98018.09;;;6.03;84.88
75627;BME280;67372;49.404;11.034;2023-12-29T06:28:48;98013.56;;;5.97;86.36
75627;BME280;67372;49.404;11.034;2023-12-29T06:31:16;98012.47;;;5.91;87.08
75627;BME280;67372;49.404;11.034;2023-12-29T06:33:43;98007.72;;;5.86;87.04
75627;BME280;67372;49.404;11.034;2023-12-29T06:36:10;97998.34;;;5.84;87.78
75627;BME280;67372;49.404;11.034;2023-12-29T06:38:36;98008.13;;;5.83;87.93
75627;BME280;67372;49.404;11.034;2023-12-29T06:41:03;98014.03;;;5.85;87.37
75627;BME280;67372;49.404;11.034;2023-12-29T06:43:30;98005.72;;;5.89;88.21
75627;BME280;67372;49.404;11.034;2023-12-29T06:45:56;98004.53;;;5.91;88.52
75627;BME280;67372;49.404;11.034;2023-12-29T06:48:23;98003.34;;;5.94;87.57
75627;BME280;67372;49.404;11.034;2023-12-29T06:50:49;97994.84;;;5.98;87.20
75627;BME280;67372;49.404;11.034;2023-12-29T06:53:15;98004.84;;;6.03;87.73
75627;BME280;67372;49.404;11.034;2023-12-29T06:55:42;97999.78;;;6.08;87.23
75627;BME280;67372;49.404;11.034;2023-12-29T06:58:08;98011.06;;;6.17;87.29
75627;BME280;67372;49.404;11.034;2023-12-29T07:00:35;98012.75;;;6.24;87.45
75627;BME280;67372;49.404;11.034;2023-12-29T07:03:02;98009.94;;;6.32;87.71
75627;BME280;67372;49.404;11.034;2023-12-29T07:05:28;98019.00;;;6.44;87.40
75627;BME280;67372;49.404;11.034;2023-12-29T07:07:55;98017.63;;;6.55;87.27
75627;BME280;67372;49.404;11.034;2023-12-29T07:10:21;98018.09;;;6.65;86.79
75627;BME280;67372;49.404;11.034;2023-12-29T07:12:47;98021.41;;;6.74;86.48
75627;BME280;67372;49.404;11.034;2023-12-29T07:15:14;98020.66;;;6.87;85.87
75627;BME280;67372;49.404;11.034;2023-12-29T07:17:40;98015.78;;;6.97;86.14
75627;BME280;67372;49.404;11.034;2023-12-29T07:20:07;98017.25;;;7.06;85.52
75627;BME280;67372;49.404;11.034;2023-12-29T07:22:34;98024.66;;;7.17;85.53
75627;BME280;67372;49.404;11.034;2023-12-29T07:25:00;98026.91;;;7.27;85.29
75627;BME280;67372;49.404;11.034;2023-12-29T07:27:27;98026.75;;;7.35;84.78
75627;BME280;67372;49.404;11.034;2023-12-29T07:29:53;98032.06;;;7.42;84.88
75627;BME280;67372;49.404;11.034;2023-12-29T07:32:19;98038.00;;;7.50;85.15
75627;BME280;67372;49.404;11.034;2023-12-29T07:34:46;98035.78;;;7.60;84.51
75627;BME280;67372;49.404;11.034;2023-12-29T07:37:12;98046.81;;;7.70;84.44
75627;BME280;67372;49.404;11.034;2023-12-29T07:39:39;98048.47;;;7.78;84.28
75627;BME280;67372;49.404;11.034;2023-12-29T07:42:06;98047.69;;;7.84;84.06
75627;BME280;67372;49.404;11.034;2023-12-29T07:44:32;98043.38;;;7.90;84.16
75627;BME280;67372;49.404;11.034;2023-12-29T07:46:58;98047.06;;;7.95;83.87
75627;BME280;67372;49.404;11.034;2023-12-29T07:49:25;98042.16;;;7.99;83.81
75627;BME280;67372;49.404;11.034;2023-12-29T07:51:51;98050.53;;;8.02;83.79
75627;BME280;67372;49.404;11.034;2023-12-29T07:54:18;98055.25;;;8.07;83.71
75627;BME280;67372;49.404;11.034;2023-12-29T07:56:44;98061.38;;;8.08;82.94
75627;BME280;67372;49.404;11.034;2023-12-29T07:59:10;98059.94;;;8.12;83.44
75627;BME280;67372;49.404;11.034;2023-12-29T08:01:37;98061.56;;;8.19;83.36
75627;BME280;67372;49.404;11.034;2023-12-29T08:04:03;98066.88;;;8.26;82.72
75627;BME280;67372;49.404;11.034;2023-12-29T08:06:30;98072.00;;;8.27;82.48
75627;BME280;67372;49.404;11.034;2023-12-29T08:08:56;98084.69;;;8.32;82.73
75627;BME280;67372;49.404;11.034;2023-12-29T08:11:23;98082.88;;;8.39;83.11
75627;BME280;67372;49.404;11.034;2023-12-29T08:13:49;98088.59;;;8.43;82.89
75627;BME280;67372;49.404;11.034;2023-12-29T08:16:16;98090.22;;;8.50;82.48
75627;BME280;67372;49.404;11.034;2023-12-29T08:18:42;98091.25;;;8.56;82.36
75627;BME280;67372;49.404;11.034;2023-12-29T08:21:16;98090.81;;;8.66;82.22
75627;BME280;67372;49.404;11.034;2023-12-29T08:23:42;98091.63;;;8.73;82.58
75627;BME280;67372;49.404;11.034;2023-12-29T08:26:09;98091.41;;;8.81;81.55
75627;BME280;67372;49.404;11.034;2023-12-29T08:28:35;98098.16;;;8.90;81.82
75627;BME280;67372;49.404;11.034;2023-12-29T08:31:01;98085.63;;;8.97;81.71
75627;BME280;67372;49.404;11.034;2023-12-29T08:33:28;98087.91;;;9.00;81.18
75627;BME280;67372;49.404;11.034;2023-12-29T08:35:54;98083.59;;;9.06;80.54
75627;BME280;67372;49.404;11.034;2023-12-29T08:38:21;98088.28;;;9.10;80.52
75627;BME280;67372;49.404;11.034;2023-12-29T08:40:47;98094.81;;;9.14;80.34
75627;BME280;67372;49.404;11.034;2023-12-29T08:43:14;98088.75;;;9.45;78.07
75627;BME280;67372;49.404;11.034;2023-12-29T08:45:40;98090.41;;;9.46;78.24
75627;BME280;67372;49.404;11.034;2023-12-29T08:48:07;98090.06;;;9.68;76.43
75627;BME280;67372;49.404;11.034;2023-12-29T08:50:33;98092.94;;;9.73;76.37
75627;BME280;67372;49.404;11.034;2023-12-29T08:53:00;98098.03;;;9.74;76.91
75627;BME280;67372;49.404;11.034;2023-12-29T08:55:26;98096.69;;;9.90;75.00
75627;BME280;67372;49.404;11.034;2023-12-29T08:57:52;98093.59;;;9.93;75.49
75627;BME280;67372;49.404;11.034;2023-12-29T09:00:19;98098.97;;;9.87;75.81
75627;BME280;67372;49.404;11.034;2023-12-29T09:02:46;98095.72;;;9.84;75.44
75627;BME280;67372;49.404;11.034;2023-12-29T09:05:13;98102.06;;;9.83;75.23
75627;BME280;67372;49.404;11.034;2023-12-29T09:07:39;98105.94;;;9.88;75.17
75627;BME280;67372;49.404;11.034;2023-12-29T09:10:06;98114.84;;;10.06;73.97
75627;BME280;67372;49.404;11.034;2023-12-29T09:12:34;98112.13;;;10.13;73.59
75627;BME280;67372;49.404;11.034;2023-12-29T09:15:00;98109.91;;;10.10;74.25
75627;BME280;67372;49.404;11.034;2023-12-29T09:17:27;98112.50;;;10.16;74.66
75627;BME280;67372;49.404;11.034;2023-12-29T09:19:53;98116.63;;;10.19;73.20
75627;BME280;67372;49.404;11.034;2023-12-29T09:22:32;98122.09;;;10.31;73.70
75627;BME280;67372;49.404;11.034;2023-12-29T09:24:58;98116.66;;;10.44;72.88
75627;BME280;67372;49.404;11.034;2023-12-29T09:27:25;98107.25;;;10.41;72.60
75627;BME280;67372;49.404;11.034;2023-12-29T09:29:51;98117.50;;;10.44;73.21
75627;BME280;67372;49.404;11.034;2023-12-29T09:32:18;98116.66;;;10.44;72.80
75627;BME280;67372;49.404;11.034;2023-12-29T09:34:45;98116.47;;;10.45;73.21
75627;BME280;67372;49.404;11.034;2023-12-29T09:37:11;98111.50;;;10.49;74.00
75627;BME280;67372;49.404;11.034;2023-12-29T09:39:38;98109.88;;;10.48;72.67
75627;BME280;67372;49.404;11.034;2023-12-29T09:42:05;98117.44;;;10.51;73.10
75627;BME280;67372;49.404;11.034;2023-12-29T09:44:34;98107.78;;;10.50;72.76
75627;BME280;67372;49.404;11.034;2023-12-29T09:47:03;98107.56;;;10.52;72.52
75627;BME280;67372;49.404;11.034;2023-12-29T09:49:37;98120.59;;;10.41;72.88
75627;BME280;67372;49.404;11.034;2023-12-29T09:52:04;98108.25;;;10.40;73.19
75627;BME280;67372;49.404;11.034;2023-12-29T09:54:31;98097.19;;;10.43;73.86
75627;BME280;67372;49.404;11.034;2023-12-29T09:56:59;98100.81;;;10.49;73.57
75627;BME280;67372;49.404;11.034;2023-12-29T09:59:26;98101.00;;;10.54;74.22
75627;BME280;67372;49.404;11.034;2023-12-29T10:01:53;98105.44;;;10.60;74.39
75627;BME280;67372;49.404;11.034;2023-12-29T10:04:20;98101.28;;;10.64;74.10
75627;BME280;67372;49.404;11.034;2023-12-29T10:06:47;98094.13;;;10.65;74.28
75627;BME280;67372;49.404;11.034;2023-12-29T10:09:16;98095.59;;;10.61;74.16
75627;BME280;67372;49.404;11.034;2023-12-29T10:11:46;98090.75;;;10.51;74.74
75627;BME280;67372;49.404;11.034;2023-12-29T10:14:22;98087.56;;;10.42;75.53
75627;BME280;67372;49.404;11.034;2023-12-29T10:16:53;98091.66;;;10.38;75.57
75627;BME280;67372;49.404;11.034;2023-12-29T10:19:36;98092.75;;;10.31;76.11
75627;BME280;67372;49.404;11.034;2023-12-29T10:24:30;98099.19;;;10.16;77.72
75627;BME280;67372;49.404;11.034;2023-12-29T10:26:57;98090.81;;;10.13;78.55
75627;BME280;67372;49.404;11.034;2023-12-29T10:29:23;98084.72;;;10.06;79.85
75627;BME280;67372;49.404;11.034;2023-12-29T10:31:50;98083.97;;;9.92;80.29
75627;BME280;67372;49.404;11.034;2023-12-29T10:34:26;98085.00;;;9.91;80.64
75627;BME280;67372;49.404;11.034;2023-12-29T10:36:52;98086.47;;;9.94;80.96
75627;BME280;67372;49.404;11.034;2023-12-29T10:39:19;98085.81;;;9.92;80.84
75627;BME280;67372;49.404;11.034;2023-12-29T10:41:45;98078.88;;;9.91;81.21
75627;BME280;67372;49.404;11.034;2023-12-29T10:44:12;98063.31;;;9.88;81.39
75627;BME280;67372;49.404;11.034;2023-12-29T10:46:38;98062.50;;;9.87;81.62
75627;BME280;67372;49.404;11.034;2023-12-29T10:49:13;98054.47;;;9.94;81.58
75627;BME280;67372;49.404;11.034;2023-12-29T10:51:40;98056.66;;;10.03;82.05
75627;BME280;67372;49.404;11.034;2023-12-29T10:54:06;98046.91;;;10.15;81.09
75627;BME280;67372;49.404;11.034;2023-12-29T10:56:33;98051.38;;;10.28;81.27
75627;BME280;67372;49.404;11.034;2023-12-29T10:59:00;98049.81;;;10.39;80.89
75627;BME280;67372;49.404;11.034;2023-12-29T11:01:35;98040.00;;;10.58;80.70
75627;BME280;67372;49.404;11.034;2023-12-29T11:04:06;98048.50;;;10.73;79.61
75627;BME280;67372;49.404;11.034;2023-12-29T11:06:40;98037.66;;;10.86;79.59
75627;BME280;67372;49.404;11.034;2023-12-29T11:09:06;98032.78;;;11.01;78.64
75627;BME280;67372;49.404;11.034;2023-12-29T11:11:34;98026.31;;;11.09;78.31
75627;BME280;67372;49.404;11.034;2023-12-29T11:14:00;98019.22;;;11.03;76.67
75627;BME280;67372;49.404;11.034;2023-12-29T11:16:29;98021.97;;;11.15;77.51
75627;BME280;67372;49.404;11.034;2023-12-29T11:18:56;98017.69;;;11.25;77.46
75627;BME280;67372;49.404;11.034;2023-12-29T11:21:26;98015.09;;;11.37;76.61
75627;BME280;67372;49.404;11.034;2023-12-29T11:23:53;98016.84;;;11.43;76.84
75627;BME280;67372;49.404;11.034;2023-12-29T11:26:20;98014.53;;;11.47;76.13
75627;BME280;67372;49.404;11.034;2023-12-29T11:28:47;98012.09;;;11.45;76.26
75627;BME280;67372;49.404;11.034;2023-12-29T11:31:16;98009.06;;;11.42;75.88
75627;BME280;67372;49.404;11.034;2023-12-29T11:34:00;98006.84;;;11.38;75.69
75627;BME280;67372;49.404;11.034;2023-12-29T11:36:33;98015.00;;;11.44;76.42
75627;BME280;67372;49.404;11.034;2023-12-29T11:42:04;98009.09;;;11.53;74.36
75627;BME280;67372;49.404;11.034;2023-12-29T11:44:32;98002.72;;;11.54;74.95
75627;BME280;67372;49.404;11.034;2023-12-29T11:46:59;97998.88;;;11.50;74.84
75627;BME280;67372;49.404;11.034;2023-12-29T11:49:58;97996.19;;;11.50;74.09
75627;BME280;67372;49.404;11.034;2023-12-29T11:52:38;97995.97;;;11.52;73.64
75627;BME280;67372;49.404;11.034;2023-12-29T11:55:12;97992.63;;;11.56;73.59
75627;BME280;67372;49.404;11.034;2023-12-29T11:57:39;98006.03;;;11.68;74.49
75627;BME280;67372;49.404;11.034;2023-12-29T12:00:06;97991.97;;;11.73;74.04
75627;BME280;67372;49.404;11.034;2023-12-29T12:02:33;98004.06;;;11.75;73.93
75627;BME280;67372;49.404;11.034;2023-12-29T12:04:59;97999.09;;;11.79;73.73
75627;BME280;67372;49.404;11.034;2023-12-29T12:12:48;97991.03;;;11.67;71.13
75627;BME280;67372;49.404;11.034;2023-12-29T12:17:58;97983.75;;;11.44;70.67
75627;BME280;67372;49.404;11.034;2023-12-29T12:20:25;97986.09;;;11.52;69.32
75627;BME280;67372;49.404;11.034;2023-12-29T12:23:11;97991.41;;;11.71;68.00
75627;BME280;67372;49.404;11.034;2023-12-29T12:25:38;97979.41;;;11.61;66.68
75627;BME280;67372;49.404;11.034;2023-12-29T12:28:06;97989.59;;;11.53;67.54
75627;BME280;67372;49.404;11.034;2023-12-29T12:30:36;97976.19;;;11.71;66.60
75627;BME280;67372;49.404;11.034;2023-12-29T12:33:03;97967.19;;;11.84;65.40
75627;BME280;67372;49.404;11.034;2023-12-29T12:35:31;97971.41;;;11.73;65.21
75627;BME280;67372;49.404;11.034;2023-12-29T12:38:12;97968.88;;;11.78;65.44
75627;BME280;67372;49.404;11.034;2023-12-29T12:40:39;97961.06;;;11.77;65.31
75627;BME280;67372;49.404;11.034;2023-12-29T12:43:06;97965.53;;;11.83;65.67
75627;BME280;67372;49.404;11.034;2023-12-29T12:45:34;97975.91;;;11.91;65.00
75627;BME280;67372;49.404;11.034;2023-12-29T12:48:18;97967.47;;;11.76;64.97
75627;BME280;67372;49.404;11.034;2023-12-29T12:50:46;97964.13;;;11.80;65.74
75627;BME280;67372;49.404;11.034;2023-12-29T12:53:13;97964.84;;;11.87;65.61
75627;BME280;67372;49.404;11.034;2023-12-29T12:55:40;97971.25;;;11.98;65.44
75627;BME280;67372;49.404;11.034;2023-12-29T12:58:07;97967.19;;;11.95;65.51
75627;BME280;67372;49.404;11.034;2023-12-29T13:00:34;97956.38;;;12.02;65.80
75627;BME280;67372;49.404;11.034;2023-12-29T13:03:01;97959.50;;;11.99;65.19
75627;BME280;67372;49.404;11.034;2023-12-29T13:05:29;97953.03;;;12.07;65.82
75627;BME280;67372;49.404;11.034;2023-12-29T13:07:55;97954.19;;;12.11;64.48
75627;BME280;67372;49.404;11.034;2023-12-29T13:10:22;97956.28;;;12.20;62.96
75627;BME280;67372;49.404;11.034;2023-12-29T13:12:53;97954.06;;;12.17;63.34
75627;BME280;67372;49.404;11.034;2023-12-29T13:15:19;97955.22;;;12.10;62.54